sensor_id;sensor_type;location;lat;lon;timestamp;pressure;altitude;pressure_sealevel;temperature;humidity
63111;BME280;49201;53.426;10.300;2023-01-31T00:00:24;101656.78;;;4.20;100.00
63111;BME280;49201;53.426;10.300;2023-01-31T00:02:50;101660.25;;;4.22;100.00
63111;BME280;49201;53.426;10.300;2023-01-31T00:05:15;101671.34;;;4.24;100.00
63111;BME280;49201;53.426;10.300;2023-01-31T00:07:41;101665.59;;;4.27;100.00
63111;BME280;49201;53.426;10.300;2023-01-31T00:10:07;101673.19;;;4.27;100.00
63111;BME280;49201;53.426;10.300;2023-01-31T00:12:33;101670.59;;;4.25;100.00
63111;BME280;49201;53.426;10.300;2023-01-31T00:14:58;101679.13;;;4.27;100.00
63111;BME280;49201;53.426;10.300;2023-01-31T00:17:24;101674.88;;;4.26;100.00
63111;BME280;49201;53.426;10.300;2023-01-31T00:19:49;101676.41;;;4.24;100.00
63111;BME280;49201;53.426;10.300;2023-01-31T00:22:15;101672.16;;;4.23;100.00
63111;BME280;49201;53.426;10.300;2023-01-31T00:24:40;101672.06;;;4.22;100.00
63111;BME280;49201;53.426;10.300;2023-01-31T00:27:05;101667.78;;;4.21;100.00
63111;BME280;49201;53.426;10.300;2023-01-31T00:29:33;101671.00;;;4.18;100.00
63111;BME280;49201;53.426;10.300;2023-01-31T00:31:58;101670.75;;;4.14;100.00
63111;BME280;49201;53.426;10.300;2023-01-31T00:34:24;101673.81;;;4.08;100.00
63111;BME280;49201;53.426;10.300;2023-01-31T00:36:49;101679.47;;;4.04;100.00
63111;BME280;49201;53.426;10.300;2023-01-31T00:39:15;101691.09;;;4.01;100.00
63111;BME280;49201;53.426;10.300;2023-01-31T00:41:43;101687.50;;;3.97;100.00
63111;BME280;49201;53.426;10.300;2023-01-31T00:44:10;101687.41;;;3.96;100.00
63111;BME280;49201;53.426;10.300;2023-01-31T00:46:37;101693.09;;;3.92;100.00
63111;BME280;49201;53.426;10.300;2023-01-31T00:49:03;101701.47;;;3.91;100.00
63111;BME280;49201;53.426;10.300;2023-01-31T00:51:28;101703.13;;;3.90;100.00
63111;BME280;49201;53.426;10.300;2023-01-31T00:53:54;101694.91;;;3.94;100.00
63111;BME280;49201;53.426;10.300;2023-01-31T00:56:21;101690.19;;;4.00;100.00
63111;BME280;49201;53.426;10.300;2023-01-31T00:58:48;101708.22;;;4.05;100.00
63111;BME280;49201;53.426;10.300;2023-01-31T01:01:34;101693.28;;;4.09;100.00
63111;BME280;49201;53.426;10.300;2023-01-31T01:04:00;101695.03;;;4.10;100.00
63111;BME280;49201;53.426;10.300;2023-01-31T01:06:31;101700.19;;;4.12;100.00
63111;BME280;49201;53.426;10.300;2023-01-31T01:08:57;101713.75;;;4.12;100.00
63111;BME280;49201;53.426;10.300;2023-01-31T01:11:29;101705.94;;;4.09;100.00
63111;BME280;49201;53.426;10.300;2023-01-31T01:13:56;101709.28;;;4.08;100.00
63111;BME280;49201;53.426;10.300;2023-01-31T01:16:29;101717.75;;;4.09;100.00
63111;BME280;49201;53.426;10.300;2023-01-31T01:18:55;101737.34;;;4.11;100.00
63111;BME280;49201;53.426;10.300;2023-01-31T01:21:25;101748.31;;;4.12;100.00
63111;BME280;49201;53.426;10.300;2023-01-31T01:23:51;101724.19;;;4.04;100.00
63111;BME280;49201;53.426;10.300;2023-01-31T01:26:23;101710.81;;;3.92;100.00
63111;BME280;49201;53.426;10.300;2023-01-31T01:28:50;101724.66;;;3.84;100.00
63111;BME280;49201;53.426;10.300;2023-01-31T01:31:16;101705.69;;;3.77;100.00
63111;BME280;49201;53.426;10.300;2023-01-31T01:33:44;101709.72;;;3.74;100.00
63111;BME280;49201;53.426;10.300;2023-01-31T01:36:11;101709.41;;;3.69;100.00
63111;BME280;49201;53.426;10.300;2023-01-31T01:38:38;101710.81;;;3.64;100.00
63111;BME280;49201;53.426;10.300;2023-01-31T01:41:08;101711.50;;;3.62;100.00
63111;BME280;49201;53.426;10.300;2023-01-31T01:43:39;101730.09;;;3.62;100.00
63111;BME280;49201;53.426;10.300;2023-01-31T01:46:06;101724.25;;;3.63;100.00
63111;BME280;49201;53.426;10.300;2023-01-31T01:48:33;101730.19;;;3.64;100.00
63111;BME280;49201;53.426;10.300;2023-01-31T01:51:02;101729.63;;;3.68;100.00
63111;BME280;49201;53.426;10.300;2023-01-31T01:53:30;101726.28;;;3.69;100.00
63111;BME280;49201;53.426;10.300;2023-01-31T01:56:09;101743.91;;;3.67;100.00
63111;BME280;49201;53.426;10.300;2023-01-31T01:58:40;101747.25;;;3.66;100.00
63111;BME280;49201;53.426;10.300;2023-01-31T02:01:09;101748.28;;;3.70;100.00
63111;BME280;49201;53.426;10.300;2023-01-31T02:03:38;101751.59;;;3.69;100.00
63111;BME280;49201;53.426;10.300;2023-01-31T02:06:05;101747.59;;;3.72;100.00
63111;BME280;49201;53.426;10.300;2023-01-31T02:08:33;101740.88;;;3.73;100.00
63111;BME280;49201;53.426;10.300;2023-01-31T02:13:30;101749.44;;;3.75;100.00
63111;BME280;49201;53.426;10.300;2023-01-31T02:15:56;101764.03;;;3.79;100.00
63111;BME280;49201;53.426;10.300;2023-01-31T02:18:23;101764.25;;;3.82;100.00
63111;BME280;49201;53.426;10.300;2023-01-31T02:26:44;101761.50;;;3.79;100.00
63111;BME280;49201;53.426;10.300;2023-01-31T02:29:38;101765.63;;;3.77;100.00
63111;BME280;49201;53.426;10.300;2023-01-31T02:35:19;101757.38;;;3.66;100.00
63111;BME280;49201;53.426;10.300;2023-01-31T02:45:59;101775.56;;;3.74;100.00
63111;BME280;49201;53.426;10.300;2023-01-31T02:51:21;101767.47;;;3.79;100.00
63111;BME280;49201;53.426;10.300;2023-01-31T02:53:55;101765.19;;;3.84;100.00
63111;BME280;49201;53.426;10.300;2023-01-31T02:56:28;101770.47;;;3.87;100.00
63111;BME280;49201;53.426;10.300;2023-01-31T02:58:58;101756.22;;;3.89;100.00
63111;BME280;49201;53.426;10.300;2023-01-31T03:01:30;101768.19;;;3.91;100.00
63111;BME280;49201;53.426;10.300;2023-01-31T03:03:57;101760.00;;;3.95;100.00
63111;BME280;49201;53.426;10.300;2023-01-31T03:09:11;101766.91;;;3.98;100.00
63111;BME280;49201;53.426;10.300;2023-01-31T03:17:56;101755.22;;;4.00;100.00
63111;BME280;49201;53.426;10.300;2023-01-31T03:20:33;101746.63;;;3.98;100.00
63111;BME280;49201;53.426;10.300;2023-01-31T03:23:05;101746.53;;;3.96;100.00
63111;BME280;49201;53.426;10.300;2023-01-31T03:25:34;101755.03;;;3.97;100.00
63111;BME280;49201;53.426;10.300;2023-01-31T03:28:07;101754.31;;;3.99;100.00
63111;BME280;49201;53.426;10.300;2023-01-31T03:30:42;101751.00;;;4.00;100.00
63111;BME280;49201;53.426;10.300;2023-01-31T03:33:15;101751.00;;;4.00;100.00
63111;BME280;49201;53.426;10.300;2023-01-31T03:35:47;101750.84;;;3.97;100.00
63111;BME280;49201;53.426;10.300;2023-01-31T03:38:20;101753.19;;;3.94;100.00
63111;BME280;49201;53.426;10.300;2023-01-31T03:40:55;101757.94;;;3.90;100.00
63111;BME280;49201;53.426;10.300;2023-01-31T03:43:49;101752.63;;;3.85;100.00
63111;BME280;49201;53.426;10.300;2023-01-31T03:46:22;101749.53;;;3.76;100.00
63111;BME280;49201;53.426;10.300;2023-01-31T03:48:50;101748.28;;;3.70;100.00
63111;BME280;49201;53.426;10.300;2023-01-31T03:51:21;101747.03;;;3.63;100.00
63111;BME280;49201;53.426;10.300;2023-01-31T03:53:52;101758.34;;;3.55;100.00
63111;BME280;49201;53.426;10.300;2023-01-31T03:56:25;101762.94;;;3.48;100.00
63111;BME280;49201;53.426;10.300;2023-01-31T03:59:05;101766.06;;;3.44;100.00
63111;BME280;49201;53.426;10.300;2023-01-31T04:01:36;101760.72;;;3.39;100.00
63111;BME280;49201;53.426;10.300;2023-01-31T04:04:08;101764.03;;;3.38;100.00
63111;BME280;49201;53.426;10.300;2023-01-31T04:06:35;101765.00;;;3.40;100.00
63111;BME280;49201;53.426;10.300;2023-01-31T04:09:00;101770.47;;;3.46;100.00
63111;BME280;49201;53.426;10.300;2023-01-31T04:11:27;101764.03;;;3.51;100.00
63111;BME280;49201;53.426;10.300;2023-01-31T04:13:53;101760.22;;;3.58;100.00
63111;BME280;49201;53.426;10.300;2023-01-31T04:16:18;101759.53;;;3.60;100.00
63111;BME280;49201;53.426;10.300;2023-01-31T04:18:44;101758.66;;;3.60;100.00
63111;BME280;49201;53.426;10.300;2023-01-31T04:21:09;101761.28;;;3.61;100.00
63111;BME280;49201;53.426;10.300;2023-01-31T04:23:35;101761.53;;;3.66;100.00
63111;BME280;49201;53.426;10.300;2023-01-31T04:26:01;101754.72;;;3.65;100.00
63111;BME280;49201;53.426;10.300;2023-01-31T04:28:26;101747.34;;;3.68;100.00
63111;BME280;49201;53.426;10.300;2023-01-31T04:30:53;101745.97;;;3.73;100.00
63111;BME280;49201;53.426;10.300;2023-01-31T04:33:19;101738.25;;;3.71;100.00
63111;BME280;49201;53.426;10.300;2023-01-31T04:35:44;101747.59;;;3.72;100.00
63111;BME280;49201;53.426;10.300;2023-01-31T04:38:10;101729.97;;;3.74;100.00
63111;BME280;49201;53.426;10.300;2023-01-31T04:40:35;101747.69;;;3.74;100.00
63111;BME280;49201;53.426;10.300;2023-01-31T04:43:01;101735.22;;;3.77;100.00
63111;BME280;49201;53.426;10.300;2023-01-31T04:45:26;101732.00;;;3.79;100.00
63111;BME280;49201;53.426;10.300;2023-01-31T04:47:51;101732.00;;;3.79;100.00
63111;BME280;49201;53.426;10.300;2023-01-31T04:50:17;101729.53;;;3.81;100.00
63111;BME280;49201;53.426;10.300;2023-01-31T04:52:42;101728.78;;;3.82;100.00
63111;BME280;49201;53.426;10.300;2023-01-31T04:55:08;101733.16;;;3.84;100.00
63111;BME280;49201;53.426;10.300;2023-01-31T04:57:33;101737.44;;;3.85;100.00
63111;BME280;49201;53.426;10.300;2023-01-31T04:59:59;101734.09;;;3.86;100.00
63111;BME280;49201;53.426;10.300;2023-01-31T05:02:24;101724.97;;;3.88;100.00
63111;BME280;49201;53.426;10.300;2023-01-31T05:04:50;101728.34;;;3.89;100.00
63111;BME280;49201;53.426;10.300;2023-01-31T05:07:15;101725.13;;;3.91;100.00
63111;BME280;49201;53.426;10.300;2023-01-31T05:09:41;101722.69;;;3.93;100.00
63111;BME280;49201;53.426;10.300;2023-01-31T05:12:09;101722.78;;;3.94;100.00
63111;BME280;49201;53.426;10.300;2023-01-31T05:14:34;101723.75;;;3.96;100.00
63111;BME280;49201;53.426;10.300;2023-01-31T05:17:00;101717.13;;;3.98;100.00
63111;BME280;49201;53.426;10.300;2023-01-31T05:19:27;101732.47;;;4.01;100.00
63111;BME280;49201;53.426;10.300;2023-01-31T05:21:52;101730.13;;;4.04;100.00
63111;BME280;49201;53.426;10.300;2023-01-31T05:24:28;101731.19;;;4.08;100.00
63111;BME280;49201;53.426;10.300;2023-01-31T05:26:55;101724.56;;;4.10;100.00
63111;BME280;49201;53.426;10.300;2023-01-31T05:29:31;101731.28;;;4.09;100.00
63111;BME280;49201;53.426;10.300;2023-01-31T05:31:58;101737.34;;;4.11;100.00
63111;BME280;49201;53.426;10.300;2023-01-31T05:34:25;101735.75;;;4.13;100.00
63111;BME280;49201;53.426;10.300;2023-01-31T05:36:51;101732.44;;;4.14;100.00
63111;BME280;49201;53.426;10.300;2023-01-31T05:39:17;101731.56;;;4.14;100.00
63111;BME280;49201;53.426;10.300;2023-01-31T05:41:43;101729.91;;;4.14;100.00
63111;BME280;49201;53.426;10.300;2023-01-31T05:44:08;101734.25;;;4.17;100.00
63111;BME280;49201;53.426;10.300;2023-01-31T05:46:35;101724.22;;;4.18;100.00
63111;BME280;49201;53.426;10.300;2023-01-31T05:49:01;101725.13;;;4.19;100.00
63111;BME280;49201;53.426;10.300;2023-01-31T05:51:26;101712.53;;;4.20;100.00
63111;BME280;49201;53.426;10.300;2023-01-31T05:53:52;101717.66;;;4.22;100.00
63111;BME280;49201;53.426;10.300;2023-01-31T05:56:19;101720.28;;;4.23;100.00
63111;BME280;49201;53.426;10.300;2023-01-31T05:58:44;101708.50;;;4.24;100.00
63111;BME280;49201;53.426;10.300;2023-01-31T06:01:25;101709.47;;;4.26;100.00
63111;BME280;49201;53.426;10.300;2023-01-31T06:03:50;101709.56;;;4.27;100.00
63111;BME280;49201;53.426;10.300;2023-01-31T06:06:16;101710.53;;;4.29;100.00
63111;BME280;49201;53.426;10.300;2023-01-31T06:08:42;101703.78;;;4.30;100.00
63111;BME280;49201;53.426;10.300;2023-01-31T06:11:09;101703.78;;;4.30;100.00
63111;BME280;49201;53.426;10.300;2023-01-31T06:13:39;101707.47;;;4.35;100.00
63111;BME280;49201;53.426;10.300;2023-01-31T06:16:05;101706.50;;;4.33;100.00
63111;BME280;49201;53.426;10.300;2023-01-31T06:18:31;101704.78;;;4.32;100.00
63111;BME280;49201;53.426;10.300;2023-01-31T06:20:56;101710.88;;;4.35;100.00
63111;BME280;49201;53.426;10.300;2023-01-31T06:23:22;101701.69;;;4.37;100.00
63111;BME280;49201;53.426;10.300;2023-01-31T06:25:52;101704.22;;;4.37;100.00
63111;BME280;49201;53.426;10.300;2023-01-31T06:28:18;101700.13;;;4.39;100.00
63111;BME280;49201;53.426;10.300;2023-01-31T06:30:44;101703.63;;;4.41;100.00
63111;BME280;49201;53.426;10.300;2023-01-31T06:33:10;101693.38;;;4.40;100.00
63111;BME280;49201;53.426;10.300;2023-01-31T06:35:37;101684.94;;;4.39;100.00
63111;BME280;49201;53.426;10.300;2023-01-31T06:38:02;101690.00;;;4.39;100.00
63111;BME280;49201;53.426;10.300;2023-01-31T06:40:28;101681.59;;;4.40;100.00
63111;BME280;49201;53.426;10.300;2023-01-31T06:42:53;101684.22;;;4.42;100.00
63111;BME280;49201;53.426;10.300;2023-01-31T06:45:19;101670.56;;;4.40;100.00
63111;BME280;49201;53.426;10.300;2023-01-31T06:47:44;101684.38;;;4.45;100.00
63111;BME280;49201;53.426;10.300;2023-01-31T06:50:11;101677.75;;;4.47;100.00
63111;BME280;49201;53.426;10.300;2023-01-31T06:52:38;101675.22;;;4.47;100.00
63111;BME280;49201;53.426;10.300;2023-01-31T06:55:04;101670.25;;;4.48;100.00
63111;BME280;49201;53.426;10.300;2023-01-31T06:57:29;101661.03;;;4.50;100.00
63111;BME280;49201;53.426;10.300;2023-01-31T06:59:55;101660.09;;;4.48;100.00
63111;BME280;49201;53.426;10.300;2023-01-31T07:02:20;101655.09;;;4.50;100.00
63111;BME280;49201;53.426;10.300;2023-01-31T07:04:45;101653.44;;;4.50;100.00
63111;BME280;49201;53.426;10.300;2023-01-31T07:07:11;101642.41;;;4.50;100.00
63111;BME280;49201;53.426;10.300;2023-01-31T07:09:36;101639.13;;;4.51;100.00
63111;BME280;49201;53.426;10.300;2023-01-31T07:12:02;101632.22;;;4.48;100.00
63111;BME280;49201;53.426;10.300;2023-01-31T07:14:27;101627.91;;;4.47;100.00
63111;BME280;49201;53.426;10.300;2023-01-31T07:16:53;101629.50;;;4.45;100.00
63111;BME280;49201;53.426;10.300;2023-01-31T07:19:18;101630.44;;;4.47;100.00
63111;BME280;49201;53.426;10.300;2023-01-31T07:21:44;101614.47;;;4.48;100.00
63111;BME280;49201;53.426;10.300;2023-01-31T07:24:11;101602.53;;;4.47;100.00
63111;BME280;49201;53.426;10.300;2023-01-31T07:26:36;101602.53;;;4.47;100.00
63111;BME280;49201;53.426;10.300;2023-01-31T07:29:02;101591.66;;;4.48;100.00
63111;BME280;49201;53.426;10.300;2023-01-31T07:31:27;101600.19;;;4.50;100.00
63111;BME280;49201;53.426;10.300;2023-01-31T07:33:53;101598.53;;;4.51;100.00
63111;BME280;49201;53.426;10.300;2023-01-31T07:36:18;101595.31;;;4.53;100.00
63111;BME280;49201;53.426;10.300;2023-01-31T07:38:48;101586.00;;;4.54;100.00
63111;BME280;49201;53.426;10.300;2023-01-31T07:41:14;101581.03;;;4.55;100.00
63111;BME280;49201;53.426;10.300;2023-01-31T07:43:39;101580.25;;;4.56;100.00
63111;BME280;49201;53.426;10.300;2023-01-31T07:46:06;101583.66;;;4.57;100.00
63111;BME280;49201;53.426;10.300;2023-01-31T07:48:33;101580.31;;;4.58;100.00
63111;BME280;49201;53.426;10.300;2023-01-31T07:51:00;101578.75;;;4.60;100.00
63111;BME280;49201;53.426;10.300;2023-01-31T07:53:31;101567.03;;;4.62;100.00
63111;BME280;49201;53.426;10.300;2023-01-31T07:56:07;101562.91;;;4.64;100.00
63111;BME280;49201;53.426;10.300;2023-01-31T07:58:34;101563.97;;;4.67;100.00
63111;BME280;49201;53.426;10.300;2023-01-31T08:01:00;101551.44;;;4.70;100.00
63111;BME280;49201;53.426;10.300;2023-01-31T08:03:45;101549.94;;;4.74;100.00
63111;BME280;49201;53.426;10.300;2023-01-31T08:06:11;101546.00;;;4.79;100.00
63111;BME280;49201;53.426;10.300;2023-01-31T08:08:39;101555.34;;;4.80;100.00
63111;BME280;49201;53.426;10.300;2023-01-31T08:11:05;101550.44;;;4.83;100.00
63111;BME280;49201;53.426;10.300;2023-01-31T08:13:32;101537.81;;;4.84;100.00
63111;BME280;49201;53.426;10.300;2023-01-31T08:15:58;101552.41;;;4.88;100.00
63111;BME280;49201;53.426;10.300;2023-01-31T08:18:24;101538.06;;;4.89;100.00
63111;BME280;49201;53.426;10.300;2023-01-31T08:20:50;101530.69;;;4.93;100.00
63111;BME280;49201;53.426;10.300;2023-01-31T08:23:15;101530.78;;;4.95;100.00
63111;BME280;49201;53.426;10.300;2023-01-31T08:25:40;101525.00;;;4.97;100.00
63111;BME280;49201;53.426;10.300;2023-01-31T08:28:06;101515.81;;;4.99;100.00
63111;BME280;49201;53.426;10.300;2023-01-31T08:30:31;101501.59;;;5.03;100.00
63111;BME280;49201;53.426;10.300;2023-01-31T08:32:57;101498.19;;;5.02;100.00
63111;BME280;49201;53.426;10.300;2023-01-31T08:35:24;101501.59;;;5.03;100.00
63111;BME280;49201;53.426;10.300;2023-01-31T08:37:50;101498.44;;;5.07;100.00
63111;BME280;49201;53.426;10.300;2023-01-31T08:40:15;101489.22;;;5.09;100.00
63111;BME280;49201;53.426;10.300;2023-01-31T08:42:41;101498.75;;;5.13;100.00
63111;BME280;49201;53.426;10.300;2023-01-31T08:45:07;101511.44;;;5.13;100.00
63111;BME280;49201;53.426;10.300;2023-01-31T08:47:32;101509.88;;;5.15;100.00
63111;BME280;49201;53.426;10.300;2023-01-31T08:49:58;101507.31;;;5.15;100.00
63111;BME280;49201;53.426;10.300;2023-01-31T08:52:23;101497.19;;;5.15;100.00
63111;BME280;49201;53.426;10.300;2023-01-31T08:54:49;101482.81;;;5.15;100.00
63111;BME280;49201;53.426;10.300;2023-01-31T08:57:14;101487.06;;;5.16;100.00
63111;BME280;49201;53.426;10.300;2023-01-31T08:59:40;101493.13;;;5.18;100.00
63111;BME280;49201;53.426;10.300;2023-01-31T09:02:05;101480.66;;;5.23;100.00
63111;BME280;49201;53.426;10.300;2023-01-31T09:04:31;101461.53;;;5.29;100.00
63111;BME280;49201;53.426;10.300;2023-01-31T09:06:57;101460.00;;;5.33;100.00
63111;BME280;49201;53.426;10.300;2023-01-31T09:09:22;101463.41;;;5.33;100.00
63111;BME280;49201;53.426;10.300;2023-01-31T09:11:50;101460.81;;;5.32;100.00
63111;BME280;49201;53.426;10.300;2023-01-31T09:14:15;101452.34;;;5.31;100.00
63111;BME280;49201;53.426;10.300;2023-01-31T09:16:41;101450.50;;;5.29;100.00
63111;BME280;49201;53.426;10.300;2023-01-31T09:19:06;101440.41;;;5.30;100.00
63111;BME280;49201;53.426;10.300;2023-01-31T09:21:32;101442.09;;;5.30;100.00
63111;BME280;49201;53.426;10.300;2023-01-31T09:23:59;101436.22;;;5.31;100.00
63111;BME280;49201;53.426;10.300;2023-01-31T09:26:27;101434.56;;;5.31;100.00
63111;BME280;49201;53.426;10.300;2023-01-31T09:28:52;101428.69;;;5.32;100.00
63111;BME280;49201;53.426;10.300;2023-01-31T09:31:19;101418.44;;;5.31;100.00
63111;BME280;49201;53.426;10.300;2023-01-31T09:33:45;101409.19;;;5.31;100.00
63111;BME280;49201;53.426;10.300;2023-01-31T09:36:16;101400.75;;;5.32;100.00
63111;BME280;49201;53.426;10.300;2023-01-31T09:38:42;101403.00;;;5.26;100.00
63111;BME280;49201;53.426;10.300;2023-01-31T09:41:41;101399.50;;;5.24;100.00
63111;BME280;49201;53.426;10.300;2023-01-31T09:46:39;101384.19;;;5.23;100.00
63111;BME280;49201;53.426;10.300;2023-01-31T09:49:12;101382.03;;;5.30;100.00
63111;BME280;49201;53.426;10.300;2023-01-31T09:51:39;101381.81;;;5.26;100.00
63111;BME280;49201;53.426;10.300;2023-01-31T09:54:09;101371.50;;;5.23;100.00
63111;BME280;49201;53.426;10.300;2023-01-31T09:59:27;101357.72;;;5.18;100.00
63111;BME280;49201;53.426;10.300;2023-01-31T10:04:47;101337.56;;;5.21;100.00
63111;BME280;49201;53.426;10.300;2023-01-31T10:07:28;101332.41;;;5.19;100.00
63111;BME280;49201;53.426;10.300;2023-01-31T10:12:39;101329.06;;;5.20;100.00
63111;BME280;49201;53.426;10.300;2023-01-31T10:15:25;101321.38;;;5.19;100.00
63111;BME280;49201;53.426;10.300;2023-01-31T10:18:07;101312.84;;;5.17;100.00
63111;BME280;49201;53.426;10.300;2023-01-31T10:20:42;101312.91;;;5.18;100.00
63111;BME280;49201;53.426;10.300;2023-01-31T10:23:25;101302.13;;;5.22;100.00
63111;BME280;49201;53.426;10.300;2023-01-31T10:26:23;101317.09;;;5.18;100.00
63111;BME280;49201;53.426;10.300;2023-01-31T10:37:19;101298.78;;;5.23;100.00
63111;BME280;49201;53.426;10.300;2023-01-31T10:39:57;101294.53;;;5.24;100.00
63111;BME280;49201;53.426;10.300;2023-01-31T10:42:28;101298.84;;;5.25;100.00
63111;BME280;49201;53.426;10.300;2023-01-31T10:45:26;101292.31;;;5.30;100.00
63111;BME280;49201;53.426;10.300;2023-01-31T10:56:30;101260.47;;;5.36;100.00
63111;BME280;49201;53.426;10.300;2023-01-31T10:58:57;101252.22;;;5.40;100.00
63111;BME280;49201;53.426;10.300;2023-01-31T11:01:23;101238.63;;;5.40;100.00
63111;BME280;49201;53.426;10.300;2023-01-31T11:03:51;101247.97;;;5.41;100.00
63111;BME280;49201;53.426;10.300;2023-01-31T11:06:18;101233.56;;;5.40;100.00
63111;BME280;49201;53.426;10.300;2023-01-31T11:09:00;101239.44;;;5.39;100.00
63111;BME280;49201;53.426;10.300;2023-01-31T11:11:27;101229.41;;;5.42;100.00
63111;BME280;49201;53.426;10.300;2023-01-31T11:14:02;101230.34;;;5.44;100.00
63111;BME280;49201;53.426;10.300;2023-01-31T11:16:31;101211.78;;;5.45;100.00
63111;BME280;49201;53.426;10.300;2023-01-31T11:18:59;101209.38;;;5.48;100.00
63111;BME280;49201;53.426;10.300;2023-01-31T11:21:30;101208.84;;;5.55;100.00
63111;BME280;49201;53.426;10.300;2023-01-31T11:24:04;101213.19;;;5.57;100.00
63111;BME280;49201;53.426;10.300;2023-01-31T11:26:34;101218.19;;;5.56;100.00
63111;BME280;49201;53.426;10.300;2023-01-31T11:29:06;101225.09;;;5.58;100.00
63111;BME280;49201;53.426;10.300;2023-01-31T11:31:36;101232.94;;;5.63;100.00
63111;BME280;49201;53.426;10.300;2023-01-31T11:34:18;101213.50;;;5.63;100.00
63111;BME280;49201;53.426;10.300;2023-01-31T11:36:43;101200.09;;;5.67;100.00
63111;BME280;49201;53.426;10.300;2023-01-31T11:39:26;101205.31;;;5.70;100.00
63111;BME280;49201;53.426;10.300;2023-01-31T11:41:52;101197.94;;;5.75;100.00
63111;BME280;49201;53.426;10.300;2023-01-31T11:44:20;101186.38;;;5.81;100.00
63111;BME280;49201;53.426;10.300;2023-01-31T11:46:52;101188.97;;;5.83;100.00
63111;BME280;49201;53.426;10.300;2023-01-31T11:49:26;101189.19;;;5.87;100.00
63111;BME280;49201;53.426;10.300;2023-01-31T11:51:53;101183.31;;;5.88;100.00
63111;BME280;49201;53.426;10.300;2023-01-31T11:54:26;101192.78;;;5.92;100.00
63111;BME280;49201;53.426;10.300;2023-01-31T11:56:52;101188.56;;;5.93;100.00
63111;BME280;49201;53.426;10.300;2023-01-31T11:59:23;101178.53;;;5.96;100.00
63111;BME280;49201;53.426;10.300;2023-01-31T12:01:51;101190.56;;;6.00;100.00
63111;BME280;49201;53.426;10.300;2023-01-31T12:04:25;101163.75;;;6.06;100.00
63111;BME280;49201;53.426;10.300;2023-01-31T12:09:26;101157.19;;;6.11;100.00
63111;BME280;49201;53.426;10.300;2023-01-31T12:11:58;101158.84;;;6.11;100.00
63111;BME280;49201;53.426;10.300;2023-01-31T12:14:36;101149.63;;;6.13;100.00
63111;BME280;49201;53.426;10.300;2023-01-31T12:17:02;101136.84;;;6.11;100.00
63111;BME280;49201;53.426;10.300;2023-01-31T12:19:46;101125.06;;;6.13;100.00
63111;BME280;49201;53.426;10.300;2023-01-31T12:27:57;101131.47;;;6.24;100.00
63111;BME280;49201;53.426;10.300;2023-01-31T12:41:49;101119.13;;;6.33;100.00
63111;BME280;49201;53.426;10.300;2023-01-31T12:55:19;101091.50;;;6.63;100.00
63111;BME280;49201;53.426;10.300;2023-01-31T13:00:39;101092.81;;;6.53;100.00
63111;BME280;49201;53.426;10.300;2023-01-31T13:06:25;101083.69;;;6.58;100.00
63111;BME280;49201;53.426;10.300;2023-01-31T13:09:19;101079.69;;;6.65;100.00
63111;BME280;49201;53.426;10.300;2023-01-31T13:11:51;101072.19;;;6.68;100.00
63111;BME280;49201;53.426;10.300;2023-01-31T13:14:23;101073.09;;;6.70;100.00
63111;BME280;49201;53.426;10.300;2023-01-31T13:17:00;101062.25;;;6.74;100.00
63111;BME280;49201;53.426;10.300;2023-01-31T13:19:49;101063.34;;;6.80;100.00
63111;BME280;49201;53.426;10.300;2023-01-31T13:22:23;101065.66;;;6.74;100.00
63111;BME280;49201;53.426;10.300;2023-01-31T13:27:34;101046.97;;;6.74;100.00
63111;BME280;49201;53.426;10.300;2023-01-31T13:32:44;101051.66;;;6.85;100.00
63111;BME280;49201;53.426;10.300;2023-01-31T13:35:25;101053.31;;;6.85;100.00
63111;BME280;49201;53.426;10.300;2023-01-31T13:37:57;101056.63;;;6.82;100.00
63111;BME280;49201;53.426;10.300;2023-01-31T13:40:27;101077.03;;;6.84;100.00
63111;BME280;49201;53.426;10.300;2023-01-31T13:42:54;101073.66;;;6.83;100.00
63111;BME280;49201;53.426;10.300;2023-01-31T13:45:26;101075.31;;;6.83;100.00
63111;BME280;49201;53.426;10.300;2023-01-31T13:48:13;101058.41;;;6.85;100.00
63111;BME280;49201;53.426;10.300;2023-01-31T13:50:41;101054.69;;;6.99;100.00
63111;BME280;49201;53.426;10.300;2023-01-31T13:53:19;101055.63;;;7.01;100.00
63111;BME280;49201;53.426;10.300;2023-01-31T13:55:47;101048.91;;;7.03;100.00
63111;BME280;49201;53.426;10.300;2023-01-31T13:58:22;101052.56;;;7.09;100.00
63111;BME280;49201;53.426;10.300;2023-01-31T14:00:56;101035.69;;;7.13;100.00
63111;BME280;49201;53.426;10.300;2023-01-31T14:03:24;101031.19;;;7.53;100.00
63111;BME280;49201;53.426;10.300;2023-01-31T14:05:52;101020.38;;;7.35;100.00
63111;BME280;49201;53.426;10.300;2023-01-31T14:13:47;101007.75;;;7.14;100.00
63111;BME280;49201;53.426;10.300;2023-01-31T14:16:36;101009.41;;;7.37;100.00
63111;BME280;49201;53.426;10.300;2023-01-31T14:21:51;101016.16;;;7.35;100.00
63111;BME280;49201;53.426;10.300;2023-01-31T14:27:27;101008.06;;;7.23;100.00
63111;BME280;49201;53.426;10.300;2023-01-31T14:32:37;101011.25;;;7.16;100.00
63111;BME280;49201;53.426;10.300;2023-01-31T14:37:48;101017.19;;;7.17;100.00
63111;BME280;49201;53.426;10.300;2023-01-31T14:45:54;101014.59;;;7.15;100.00
63111;BME280;49201;53.426;10.300;2023-01-31T14:51:09;101003.47;;;7.13;100.00
63111;BME280;49201;53.426;10.300;2023-01-31T14:54:21;101012.78;;;7.13;100.00
63111;BME280;49201;53.426;10.300;2023-01-31T15:00:01;101005.91;;;7.10;100.00